AirNav   Phillips 66 Aviation Fuel
 
 968 users online  

85KY Deer Run Airpark
New Castle, Kentucky, USA

GOING TO NEW CASTLE?


FAA INFORMATION EFFECTIVE 12 SEPTEMBER 2019

Location

FAA Identifier: 85KY
Lat/Long: 38-28-13.0000N 085-08-19.0000W
38-28.216667N 085-08.316667W
38.4702778,-85.1386111
(estimated)
Elevation: 890 ft. / 271.3 m (surveyed)
Variation: 02W (1985)
From city: 3 miles NE of NEW CASTLE, KY
Time zone: UTC -4 (UTC -5 during Standard Time)
Zip code: 40011

Airport Operations

Airport use: Private use. Permission required prior to landing
Activation date: 03/1988
Control tower: no
ARTCC: INDIANAPOLIS CENTER
FSS: LOUISVILLE FLIGHT SERVICE STATION
Attendance: IREG
Wind indicator: yes
Segmented circle: no

Nearby radio navigation aids

VOR radial/distance  VOR name  Freq  Var
FFTr331/(20.4)FRANKFORT VOR109.4003W
IIUr042/30.2LOUISVILLE VORTAC114.8001E
CVGr216/38.6CINCINNATI VORTAC117.3004W

Airport Services

Runway Information

Runway 14/32

Dimensions: 3100 x 60 ft. / 945 x 18 m
Surface: turf
Runway edge markings: RED CONES THLDS & EDGE.
RUNWAY 14  RUNWAY 32
Traffic pattern: leftleft
Obstructions: none14 ft. pline, marked, 300 ft. from runway

Airport Ownership and Management from official FAA records

Ownership: Privately-owned
Owner: DEER RUN AIRPARK OWNERS ASSN
2680 DRENNON RD
NEW CASTLE, KY 40050
Phone 502-845-2216
ADDTL PHONE 502-706-0108
Manager: WILLIAM G GEIGER
2680 DRENNON RD
NEW CASTLE, KY 40050
Phone 502-845-2216

Airport Operational Statistics

Aircraft based on the field: 9
Single engine airplanes: 9
    

Additional Remarks

FOR CD CTC LOUISVILLE APCH AT 502-375-7499

Instrument Procedures

There are no published instrument procedures at 85KY.

Some nearby airports with instrument procedures:

KFFT - Capital City Airport (20 nm SE)
KIMS - Madison Municipal Airport (23 nm NW)
KLOU - Bowman Field Airport (29 nm SW)
KJVY - Clark Regional Airport (29 nm W)
KSDF - Louisville Muhammad Ali International Airport (33 nm SW)
 
Loc | Ops | Rwys | IFR | FBO | Links
Com | Nav | Svcs | Stats | Notes
Area around 85KY (Deer Run Airpark)
 
Road maps at: MapQuest Bing Google
 
Aerial photo
No photo
 
Sectional chart

 
Airport distance calculator
Flying to Deer Run Airpark? Find the distance to fly.

From to 85KY

Sunrise and sunset
Times for 15-Sep-2019
 Local
(UTC-4)
 Zulu
(UTC)
Morning civil twilight06:5610:56
Sunrise07:2311:23
Sunset19:4823:48
Evening civil twilight20:1500:15

Current date and time
Zulu (UTC)  15-Sep-2019 15:11:36
Local (UTC-4)  15-Sep-2019 11:11:36
 
METAR
KFFT 
21nm SE 
151453Z AUTO 18007KT 10SM CLR 26/13 A3021 RMK AO2 SLP222 T02560133 50003
KIMS 
23nm NW 
151455Z AUTO 18005KT 10SM CLR 23/12 A3023 RMK AO1
KJVY 
29nm W 
151455Z AUTO 16005KT 10SM CLR 25/12 A3020 RMK AO2 T02490120
KLOU 
29nm SW 
151453Z 00000KT 10SM CLR 25/12 A3020 RMK AO2 SLP224 T02500117 52003
KSDF 
33nm SW 
151456Z 11005KT 10SM SCT250 26/12 A3020 RMK AO2 RAB34E56 SLP221 P0000 60000 T02610122 52001 $
K27K 
36nm SE 
151455Z AUTO 16008KT 10SM CLR 25/10 A3022 RMK AO1
KLEX 
36nm SE 
151454Z 15007KT 10SM CLR 26/12 A3022 RMK AO2 SLP226 T02560122 51004 $
TAF
KSDF 
33nm SW 
151120Z 1512/1618 VRB03KT P6SM FEW250 FM151500 17006KT P6SM FEW250 FM160000 VRB04KT P6SM FEW250
KLEX 
36nm SE 
151120Z 1512/1612 VRB05KT P6SM FEW250
NOTAMs
Click for the latest NOTAMs
NOTAMs are issued by the DoD/FAA and will open in a separate window not controlled by AirNav.

 

 
 

Would you like to see your business listed on this page?

 If your business provides an interesting product or service to pilots, flight crews, aircraft, or users of the Deer Run Airpark, you should consider listing it here.  To start the listing process, click on the button below
 
Add a business
 

Other Pages about Deer Run Airpark

Update a link
 
Copyright © AirNav, LLC. All rights reserved. Privacy Policy  Contact